Rosebush, Michigan
Current Conditions -  °F | °C
As of 5:18 AM on Sunday 26 Oct 2014 (Local Time) from KMOP Reporting Station
Clear Clear  
Wind Chill: 39°   Ceiling: Unl
Heat Index: 43°   Visibility: 10mi
Dew Point: 31°   Wind: 6mph
Humidity: 63%   Direction: 250°WSW
Pressure: 29.87"   Gusts: NA
Location:  43.7°N, 84.77°W
Report Text: KMOP 260918Z AUTO 25005KT 10SM CLR 06/00 A2987 RMK AO2 T00601005
Loading
Personal Weather Stations






























Interactive Weather Map
Tropical Storm Tracking
New forecast layout! Learn more

10-Day Weather Forecast

Advertisements
Track Severe Weather on mobile